createdAt,value
2018-01-24T00:01:08.071Z,21.80
2018-01-24T00:03:35.675Z,24.43
2018-01-24T00:06:03.210Z,21.87
2018-01-24T00:08:30.847Z,20.93
2018-01-24T00:10:58.378Z,21.20
2018-01-24T00:13:25.970Z,19.23
2018-01-24T00:15:53.515Z,18.90
2018-01-24T00:18:21.051Z,22.47
2018-01-24T00:20:48.699Z,25.03
2018-01-24T00:23:16.234Z,25.03
2018-01-24T00:25:43.770Z,18.37
2018-01-24T00:28:11.371Z,18.13
2018-01-24T00:30:38.902Z,22.73
2018-01-24T00:33:06.543Z,20.50
2018-01-24T00:35:34.070Z,20.20
2018-01-24T00:38:01.664Z,15.53
2018-01-24T00:40:29.210Z,15.37
2018-01-24T00:42:56.802Z,20.00
2018-01-24T00:45:24.439Z,17.10
2018-01-24T00:47:51.966Z,14.40
2018-01-24T00:50:19.566Z,15.70
2018-01-24T00:52:47.171Z,13.60
2018-01-24T00:55:14.762Z,10.63
2018-01-24T00:57:42.346Z,10.47
2018-01-24T01:00:09.974Z,12.10
2018-01-24T01:02:37.570Z,14.90
2018-01-24T01:05:05.118Z,10.57
2018-01-24T01:07:32.649Z,10.27
2018-01-24T01:10:00.292Z,6.63
2018-01-24T01:12:27.898Z,12.00
2018-01-24T01:14:55.430Z,8.60
2018-01-24T01:17:22.975Z,6.77
2018-01-24T01:19:50.569Z,8.30
2018-01-24T01:22:18.142Z,8.00
2018-01-24T01:24:45.726Z,6.83
2018-01-24T01:27:13.263Z,4.13
2018-01-24T01:29:40.806Z,6.53
2018-01-24T01:32:08.349Z,6.20
2018-01-24T01:34:35.987Z,5.97
2018-01-24T01:37:03.522Z,4.00
2018-01-24T01:39:31.054Z,5.83
2018-01-24T01:41:58.601Z,5.97
2018-01-24T01:44:26.237Z,5.27
2018-01-24T01:46:53.919Z,9.03
2018-01-24T01:49:21.550Z,7.40
2018-01-24T01:51:49.119Z,7.60
2018-01-24T01:54:16.702Z,7.83
2018-01-24T01:56:44.308Z,4.70
2018-01-24T01:59:11.950Z,4.67
2018-01-24T02:01:39.543Z,3.53
2018-01-24T02:04:07.135Z,6.30
2018-01-24T02:06:34.739Z,5.67
2018-01-24T02:09:02.270Z,5.50
2018-01-24T02:11:29.842Z,6.53
2018-01-24T02:13:57.374Z,7.50
2018-01-24T02:16:24.950Z,7.47
2018-01-24T02:18:52.551Z,6.20
2018-01-24T02:21:20.137Z,4.67
2018-01-24T02:23:47.750Z,9.43
2018-01-24T02:26:15.349Z,6.43
2018-01-24T02:28:42.882Z,5.23
2018-01-24T02:31:10.485Z,10.60
2018-01-24T02:33:38.018Z,7.40
2018-01-24T02:36:05.593Z,7.40
2018-01-24T02:38:44.898Z,7.50
2018-01-24T02:41:12.478Z,9.00
2018-01-24T02:43:40.010Z,13.60
2018-01-24T02:46:07.605Z,8.27
2018-01-24T02:48:35.149Z,6.93
2018-01-24T02:51:02.679Z,5.97
2018-01-24T02:53:30.314Z,9.73
2018-01-24T02:55:57.904Z,6.23
2018-01-24T02:58:25.434Z,6.60
2018-01-24T03:00:52.982Z,6.97
2018-01-24T03:03:20.514Z,6.87
2018-01-24T03:05:48.146Z,8.30
2018-01-24T03:08:15.679Z,6.50
2018-01-24T03:10:43.275Z,8.53
2018-01-24T03:13:10.817Z,9.87
2018-01-24T03:15:38.354Z,11.10
2018-01-24T03:18:05.930Z,6.83
2018-01-24T03:20:33.461Z,9.73
2018-01-24T03:23:01.052Z,8.07
2018-01-24T03:25:28.590Z,7.40
2018-01-24T03:27:56.163Z,5.23
2018-01-24T03:30:23.734Z,6.20
2018-01-24T03:32:51.266Z,6.67
2018-01-24T03:35:18.794Z,5.70
2018-01-24T03:37:46.342Z,11.70
2018-01-24T03:40:13.930Z,7.80
2018-01-24T03:42:41.503Z,8.70
2018-01-24T03:45:09.038Z,11.93
2018-01-24T03:47:36.569Z,6.80
2018-01-24T03:50:04.133Z,7.40
2018-01-24T03:52:31.731Z,8.47
2018-01-24T03:54:59.392Z,7.80
2018-01-24T03:57:26.986Z,9.90
2018-01-24T03:59:54.579Z,7.50
2018-01-24T04:02:22.121Z,7.07
2018-01-24T04:04:49.654Z,8.00
2018-01-24T04:07:17.290Z,10.93
2018-01-24T04:09:44.878Z,7.33
2018-01-24T04:12:12.470Z,9.50
2018-01-24T04:14:40.010Z,8.70
2018-01-24T04:17:07.541Z,5.13
2018-01-24T04:19:35.181Z,7.37
2018-01-24T04:22:02.710Z,8.33
2018-01-24T04:24:30.243Z,7.77
2018-01-24T04:26:57.843Z,14.67
2018-01-24T04:29:25.370Z,6.00
2018-01-24T04:31:53.002Z,7.57
2018-01-24T04:34:20.530Z,7.60
2018-01-24T04:36:48.058Z,6.40
2018-01-24T04:39:15.662Z,6.70
2018-01-24T04:41:43.254Z,8.07
2018-01-24T04:44:10.920Z,10.70
2018-01-24T04:46:38.450Z,7.23
2018-01-24T04:49:05.989Z,7.27
2018-01-24T04:51:33.575Z,10.80
2018-01-24T04:54:01.109Z,8.60
2018-01-24T04:56:28.782Z,9.80
2018-01-24T04:58:56.430Z,10.23
2018-01-24T05:01:24.007Z,9.73
2018-01-24T05:03:51.678Z,11.37
2018-01-24T05:06:19.205Z,8.33
2018-01-24T05:08:46.882Z,6.87
2018-01-24T05:11:14.514Z,8.87
2018-01-24T05:13:42.082Z,9.37
2018-01-24T05:16:09.661Z,7.30
2018-01-24T05:18:37.257Z,7.70
2018-01-24T05:21:05.758Z,10.73
2018-01-24T05:23:33.346Z,19.07
2018-01-24T05:26:00.879Z,14.20
2018-01-24T05:28:28.478Z,11.30
2018-01-24T05:30:56.026Z,17.60
2018-01-24T05:33:23.601Z,10.70
2018-01-24T05:35:51.139Z,13.10
2018-01-24T05:38:18.672Z,11.30
2018-01-24T05:40:46.271Z,9.40
2018-01-24T05:43:13.797Z,7.40
2018-01-24T05:45:41.439Z,11.03
2018-01-24T05:48:08.970Z,7.90
2018-01-24T05:50:36.567Z,12.37
2018-01-24T05:53:04.109Z,13.83
2018-01-24T05:55:31.638Z,8.33
2018-01-24T05:57:59.278Z,10.93
2018-01-24T06:00:26.809Z,12.87
2018-01-24T06:02:54.403Z,9.37
2018-01-24T06:05:21.941Z,9.50
2018-01-24T06:07:49.476Z,8.10
2018-01-24T06:10:17.103Z,16.00
2018-01-24T06:12:44.637Z,12.83
2018-01-24T06:15:12.231Z,9.70
2018-01-24T06:17:39.778Z,10.67
2018-01-24T06:20:07.309Z,9.33
2018-01-24T06:22:34.913Z,11.33
2018-01-24T06:25:02.512Z,14.60
2018-01-24T06:27:30.106Z,17.10
2018-01-24T06:29:57.746Z,17.90
2018-01-24T06:32:25.351Z,24.17
2018-01-24T06:34:53.018Z,20.87
2018-01-24T06:37:20.562Z,20.10
2018-01-24T06:39:48.101Z,16.87
2018-01-24T06:42:15.641Z,13.60
2018-01-24T06:44:43.169Z,9.40
2018-01-24T06:47:10.742Z,18.33
2018-01-24T06:49:38.334Z,13.77
2018-01-24T06:52:05.866Z,8.73
2018-01-24T06:54:33.416Z,13.50
2018-01-24T06:57:01.058Z,11.63
2018-01-24T06:59:28.630Z,12.50
2018-01-24T07:01:56.222Z,13.47
2018-01-24T07:04:23.817Z,14.63
2018-01-24T07:06:51.366Z,13.57
2018-01-24T07:09:18.903Z,17.50
2018-01-24T07:11:46.557Z,17.27
2018-01-24T07:14:25.974Z,12.70
2018-01-24T07:16:53.607Z,11.03
2018-01-24T07:19:21.142Z,15.57
2018-01-24T07:21:48.733Z,15.33
2018-01-24T07:24:16.270Z,9.30
2018-01-24T07:26:43.795Z,9.80
2018-01-24T07:29:11.434Z,16.33
2018-01-24T07:31:38.965Z,14.03
2018-01-24T07:34:06.503Z,15.80
2018-01-24T07:36:34.106Z,13.00
2018-01-24T07:39:01.633Z,9.53
2018-01-24T07:41:29.274Z,10.30
2018-01-24T07:43:56.806Z,14.00
2018-01-24T07:46:24.334Z,11.30
2018-01-24T07:48:51.891Z,10.70
2018-01-24T07:51:19.418Z,8.30
2018-01-24T07:53:47.094Z,10.00
2018-01-24T07:56:14.640Z,9.80
2018-01-24T07:58:42.267Z,8.80
2018-01-24T08:01:09.841Z,9.40
2018-01-24T08:03:37.406Z,9.33
2018-01-24T08:06:05.009Z,9.47
2018-01-24T08:08:32.598Z,14.80
2018-01-24T08:11:00.122Z,9.80
2018-01-24T08:13:27.718Z,9.43
2018-01-24T08:15:55.254Z,26.17
2018-01-24T08:18:22.832Z,16.13
2018-01-24T08:20:50.418Z,14.00
2018-01-24T08:23:18.002Z,14.43
2018-01-24T08:25:45.547Z,23.37
2018-01-24T08:28:13.141Z,14.10
2018-01-24T08:30:40.781Z,17.27
2018-01-24T08:33:08.354Z,21.07
2018-01-24T08:35:35.954Z,14.53
2018-01-24T08:38:03.518Z,15.87
2018-01-24T08:40:31.195Z,13.30
2018-01-24T08:42:58.769Z,15.83
2018-01-24T08:45:26.299Z,16.00
2018-01-24T08:47:53.886Z,16.93
2018-01-24T08:50:21.494Z,35.23
2018-01-24T08:52:49.188Z,26.47
2018-01-24T08:55:16.761Z,15.43
2018-01-24T08:57:44.346Z,9.03
2018-01-24T09:00:11.878Z,11.43
2018-01-24T09:02:39.477Z,15.50
2018-01-24T09:05:07.010Z,18.90
2018-01-24T09:07:34.657Z,14.80
2018-01-24T09:10:02.186Z,17.10
2018-01-24T09:12:29.718Z,23.20
2018-01-24T09:14:57.266Z,12.93
2018-01-24T09:17:24.802Z,11.90
2018-01-24T09:19:52.434Z,12.13
2018-01-24T09:22:19.967Z,17.70
2018-01-24T09:24:47.554Z,12.23
2018-01-24T09:27:15.090Z,11.00
2018-01-24T09:29:42.623Z,11.80
2018-01-24T09:32:10.319Z,14.60
2018-01-24T09:34:37.849Z,21.13
2018-01-24T09:37:05.378Z,16.27
2018-01-24T09:39:32.918Z,17.00
2018-01-24T09:42:00.506Z,18.80
2018-01-24T09:44:28.081Z,83.50
2018-01-24T09:46:55.618Z,33.83
2018-01-24T09:49:23.150Z,40.37
2018-01-24T09:51:50.698Z,11.10
2018-01-24T09:54:18.230Z,29.17
2018-01-24T09:56:45.869Z,39.00
2018-01-24T09:59:13.402Z,25.07
2018-01-24T10:01:40.990Z,22.00
2018-01-24T10:04:08.542Z,33.57
2018-01-24T10:06:36.143Z,21.13
2018-01-24T10:09:03.899Z,24.93
2018-01-24T10:11:31.429Z,31.27
2018-01-24T10:13:59.026Z,50.27
2018-01-24T10:16:26.575Z,34.00
2018-01-24T10:18:54.106Z,20.03
2018-01-24T10:21:21.744Z,44.60
2018-01-24T10:23:49.274Z,17.47
2018-01-24T10:26:16.867Z,13.53
2018-01-24T10:28:44.462Z,24.33
2018-01-24T10:31:11.993Z,18.37
2018-01-24T10:33:39.633Z,27.17
2018-01-24T10:36:07.163Z,19.83
2018-01-24T10:38:34.763Z,19.93
2018-01-24T10:41:02.306Z,30.73
2018-01-24T10:43:29.898Z,59.73
2018-01-24T10:45:57.530Z,24.37
2018-01-24T10:48:25.062Z,19.57
2018-01-24T10:50:52.593Z,27.50
2018-01-24T10:53:20.134Z,37.40
2018-01-24T10:55:47.661Z,19.70
2018-01-24T10:58:15.315Z,51.33
2018-01-24T11:00:43.117Z,28.27
2018-01-24T11:03:10.654Z,19.90
2018-01-24T11:05:38.259Z,36.30
2018-01-24T11:08:05.793Z,25.33
2018-01-24T11:10:33.361Z,17.60
2018-01-24T11:13:00.893Z,27.77
2018-01-24T11:15:28.429Z,29.57
2018-01-24T11:17:55.978Z,31.43
2018-01-24T11:20:23.616Z,16.30
2018-01-24T11:22:51.247Z,18.50
2018-01-24T11:25:18.867Z,14.63
2018-01-24T11:27:46.462Z,12.03
2018-01-24T11:30:14.070Z,17.37
2018-01-24T11:32:41.662Z,26.60
2018-01-24T11:35:09.238Z,55.13
2018-01-24T11:37:36.767Z,42.10
2018-01-24T11:40:04.307Z,18.20
2018-01-24T11:42:31.845Z,25.13
2018-01-24T11:44:59.374Z,31.17
2018-01-24T11:47:26.957Z,19.00
2018-01-24T11:49:54.494Z,29.83
2018-01-24T11:52:22.039Z,34.03
2018-01-24T11:54:49.582Z,27.50
2018-01-24T11:57:17.114Z,14.50
2018-01-24T11:59:44.678Z,22.07
2018-01-24T12:02:12.210Z,20.43
2018-01-24T12:04:39.746Z,56.63
2018-01-24T12:07:07.280Z,23.50
2018-01-24T12:09:34.814Z,9.53
2018-01-24T12:12:02.382Z,18.40
2018-01-24T12:14:29.918Z,20.00
2018-01-24T12:16:57.461Z,17.30
2018-01-24T12:19:25.007Z,24.90
2018-01-24T12:21:52.538Z,17.73
2018-01-24T12:24:20.105Z,24.10
2018-01-24T12:26:47.657Z,18.90
2018-01-24T12:29:15.186Z,28.10
2018-01-24T12:31:42.724Z,19.53
2018-01-24T12:34:10.257Z,19.30
2018-01-24T12:36:37.822Z,20.13
2018-01-24T12:39:05.387Z,10.13
2018-01-24T12:41:32.918Z,11.10
2018-01-24T12:44:00.457Z,26.27
2018-01-24T12:46:27.993Z,27.90
2018-01-24T12:48:55.566Z,22.03
2018-01-24T12:51:23.093Z,18.60
2018-01-24T12:53:50.638Z,18.43
2018-01-24T12:56:18.189Z,39.40
2018-01-24T12:58:45.733Z,27.50
2018-01-24T13:01:13.307Z,23.57
2018-01-24T13:03:40.833Z,13.70
2018-01-24T13:06:08.362Z,30.23
2018-01-24T13:08:35.914Z,19.20
2018-01-24T13:11:03.446Z,13.07
2018-01-24T13:13:31.029Z,56.67
2018-01-24T13:15:58.560Z,10.70
2018-01-24T13:18:26.150Z,7.50
2018-01-24T13:20:53.690Z,18.57
2018-01-24T13:23:21.221Z,15.83
2018-01-24T13:25:48.790Z,10.07
2018-01-24T13:28:16.327Z,17.23
2018-01-24T13:30:43.862Z,11.80
2018-01-24T13:33:11.405Z,20.43
2018-01-24T13:35:38.954Z,36.83
2018-01-24T13:38:06.559Z,14.20
2018-01-24T13:40:34.098Z,39.07
2018-01-24T13:43:01.680Z,34.23
2018-01-24T13:45:29.266Z,18.20
2018-01-24T13:47:56.816Z,24.33
2018-01-24T13:50:24.411Z,13.17
2018-01-24T13:52:51.993Z,11.97
2018-01-24T13:55:19.524Z,26.20
2018-01-24T13:57:47.110Z,59.43
2018-01-24T14:00:14.648Z,31.70
2018-01-24T14:02:42.313Z,40.83
2018-01-24T14:05:09.839Z,9.47
2018-01-24T14:07:37.374Z,19.70
2018-01-24T14:10:04.934Z,39.90
2018-01-24T14:12:32.465Z,16.80
2018-01-24T14:15:00.065Z,8.10
2018-01-24T14:17:27.612Z,11.30
2018-01-24T14:19:55.150Z,41.97
2018-01-24T14:22:22.690Z,40.17
2018-01-24T14:24:50.228Z,29.50
2018-01-24T14:27:17.878Z,33.03
2018-01-24T14:29:45.418Z,48.53
2018-01-24T14:32:12.954Z,40.90
2018-01-24T14:34:40.547Z,30.07
2018-01-24T14:37:08.078Z,36.40
2018-01-24T14:39:35.654Z,36.13
2018-01-24T14:42:03.202Z,63.63
2018-01-24T14:44:30.746Z,46.93
2018-01-24T14:46:58.298Z,40.33
2018-01-24T14:49:25.846Z,33.93
2018-01-24T14:51:53.421Z,29.70
2018-01-24T14:54:20.998Z,28.23
2018-01-24T14:56:48.538Z,30.73
2018-01-24T14:59:16.094Z,27.43
2018-01-24T15:01:43.638Z,29.73
2018-01-24T15:04:11.214Z,25.20
2018-01-24T15:06:38.793Z,41.50
2018-01-24T15:09:06.334Z,39.13
2018-01-24T15:11:33.886Z,42.37
2018-01-24T15:14:01.425Z,40.90
2018-01-24T15:16:29.100Z,74.07
2018-01-24T15:18:56.682Z,80.30
2018-01-24T15:21:24.223Z,65.83
2018-01-24T15:23:51.772Z,46.50
2018-01-24T15:26:19.368Z,49.07
2018-01-24T15:28:47.012Z,51.93
2018-01-24T15:31:14.567Z,47.73
2018-01-24T15:33:42.175Z,70.93
2018-01-24T15:36:09.892Z,56.17
2018-01-24T15:38:37.436Z,63.77
2018-01-24T15:41:05.105Z,62.43
2018-01-24T15:43:32.649Z,82.60
2018-01-24T15:46:00.200Z,69.03
2018-01-24T15:48:27.850Z,89.27
2018-01-24T15:50:55.398Z,69.57
2018-01-24T15:53:22.981Z,58.27
2018-01-24T15:55:50.582Z,62.40
2018-01-24T15:58:18.189Z,65.70
2018-01-24T16:00:45.767Z,57.07
2018-01-24T16:03:13.323Z,36.80
2018-01-24T16:05:40.922Z,37.47
2018-01-24T16:08:08.531Z,48.00
2018-01-24T16:10:36.179Z,55.97
2018-01-24T16:13:03.754Z,57.47
2018-01-24T16:15:31.310Z,42.73
2018-01-24T16:17:58.903Z,52.30
2018-01-24T16:20:26.459Z,44.90
2018-01-24T16:22:54.011Z,55.47
2018-01-24T16:25:21.558Z,47.63
2018-01-24T16:27:49.103Z,52.43
2018-01-24T16:30:16.719Z,51.70
2018-01-24T16:32:44.268Z,69.90
2018-01-24T16:35:11.824Z,74.43
2018-01-24T16:37:39.365Z,67.27
2018-01-24T16:40:07.001Z,67.60
2018-01-24T16:42:34.610Z,73.67
2018-01-24T16:45:02.154Z,71.50
2018-01-24T16:47:29.758Z,100.60
2018-01-24T16:49:57.418Z,131.10
2018-01-24T16:52:24.962Z,121.67
2018-01-24T16:54:53.489Z,100.50
2018-01-24T16:57:21.030Z,98.57
2018-01-24T16:59:48.614Z,84.53
2018-01-24T17:02:16.162Z,88.00
2018-01-24T17:04:43.762Z,103.43
2018-01-24T17:07:11.338Z,90.27
2018-01-24T17:09:38.881Z,105.20
2018-01-24T17:12:06.421Z,123.47
2018-01-24T17:14:33.982Z,129.27
2018-01-24T17:17:01.586Z,141.80
2018-01-24T17:19:29.228Z,132.97
2018-01-24T17:21:56.884Z,101.60
2018-01-24T17:24:24.444Z,76.83
2018-01-24T17:26:51.998Z,88.00
2018-01-24T17:29:19.603Z,80.10
2018-01-24T17:31:47.186Z,72.30
2018-01-24T17:34:14.799Z,85.27
2018-01-24T17:36:42.342Z,100.47
2018-01-24T17:39:09.894Z,104.20
2018-01-24T17:41:37.437Z,118.37
2018-01-24T17:44:05.031Z,126.00
2018-01-24T17:46:32.634Z,98.13
2018-01-24T17:49:00.169Z,89.17
2018-01-24T17:51:27.714Z,86.73
2018-01-24T17:53:55.258Z,80.90
2018-01-24T17:56:22.927Z,90.33
2018-01-24T17:58:50.483Z,82.10
2018-01-24T18:01:18.058Z,84.03
2018-01-24T18:03:45.602Z,83.37
2018-01-24T18:06:13.215Z,76.57
2018-01-24T18:08:40.806Z,73.03
2018-01-24T18:11:08.410Z,91.20
2018-01-24T18:13:35.951Z,72.30
2018-01-24T18:16:03.498Z,95.67
2018-01-24T18:18:31.052Z,103.37
2018-01-24T18:20:58.649Z,89.80
2018-01-24T18:23:26.210Z,96.30
2018-01-24T18:25:53.815Z,101.07
2018-01-24T18:28:21.365Z,89.63
2018-01-24T18:30:48.906Z,82.47
2018-01-24T18:33:16.551Z,84.00
2018-01-24T18:35:44.146Z,92.50
2018-01-24T18:38:11.743Z,91.90
2018-01-24T18:40:39.308Z,99.83
2018-01-24T18:43:06.854Z,94.37
2018-01-24T18:45:34.506Z,121.70
2018-01-24T18:48:02.110Z,113.50
2018-01-24T18:50:29.657Z,107.77
2018-01-24T18:52:57.320Z,107.53
2018-01-24T18:55:24.866Z,79.23
2018-01-24T18:57:52.518Z,68.13
2018-01-24T19:00:20.205Z,61.10
2018-01-24T19:02:47.746Z,74.07
2018-01-24T19:05:15.302Z,78.23
2018-01-24T19:07:42.846Z,78.73
2018-01-24T19:10:10.433Z,81.03
2018-01-24T19:12:37.992Z,95.30
2018-01-24T19:15:05.541Z,101.80
2018-01-24T19:17:33.094Z,126.93
2018-01-24T19:20:00.797Z,114.73
2018-01-24T19:22:28.406Z,136.83
2018-01-24T19:24:55.950Z,121.00
2018-01-24T19:27:23.494Z,106.63
2018-01-24T19:29:51.042Z,79.57
2018-01-24T19:32:18.583Z,84.23
2018-01-24T19:34:46.226Z,95.50
2018-01-24T19:37:13.822Z,98.63
2018-01-24T19:39:41.457Z,91.07
2018-01-24T19:42:09.002Z,82.03
2018-01-24T19:44:36.550Z,108.80
2018-01-24T19:47:04.162Z,124.23
2018-01-24T19:49:31.701Z,128.00
2018-01-24T19:51:59.248Z,105.67
2018-01-24T19:54:26.794Z,84.43
2018-01-24T19:56:54.381Z,97.33
2018-01-24T19:59:21.961Z,93.53
2018-01-24T20:01:49.502Z,89.23
2018-01-24T20:04:17.042Z,87.00
2018-01-24T20:06:44.588Z,77.27
2018-01-24T20:09:12.125Z,76.60
2018-01-24T20:11:39.710Z,78.50
2018-01-24T20:14:07.305Z,92.57
2018-01-24T20:16:34.911Z,110.90
2018-01-24T20:19:02.527Z,134.93
2018-01-24T20:21:30.066Z,151.77
2018-01-24T20:23:57.653Z,134.57
2018-01-24T20:26:25.226Z,92.73
2018-01-24T20:28:52.765Z,127.30
2018-01-24T20:31:20.315Z,108.33
2018-01-24T20:33:47.921Z,102.10
2018-01-24T20:36:15.505Z,89.37
2018-01-24T20:38:43.046Z,57.27
2018-01-24T20:41:10.586Z,52.17
2018-01-24T20:43:38.134Z,85.93
2018-01-24T20:46:05.730Z,70.00
2018-01-24T20:48:33.399Z,76.70
2018-01-24T20:51:00.951Z,57.57
2018-01-24T20:53:28.487Z,55.97
2018-01-24T20:55:56.034Z,66.57
2018-01-24T20:58:23.577Z,63.87
2018-01-24T21:00:51.171Z,80.53
2018-01-24T21:03:18.717Z,92.47
2018-01-24T21:05:46.310Z,91.77
2018-01-24T21:08:13.853Z,45.93
2018-01-24T21:10:41.453Z,55.03
2018-01-24T21:13:09.094Z,49.53
2018-01-24T21:15:36.637Z,52.67
2018-01-24T21:18:04.239Z,46.83
2018-01-24T21:20:31.790Z,49.03
2018-01-24T21:22:59.385Z,44.97
2018-01-24T21:25:26.965Z,56.90
2018-01-24T21:27:54.501Z,62.93
2018-01-24T21:30:22.198Z,64.03
2018-01-24T21:33:01.594Z,62.17
2018-01-24T21:35:41.076Z,70.33
2018-01-24T21:38:08.690Z,86.70
2018-01-24T21:40:36.229Z,90.53
2018-01-24T21:43:03.762Z,85.70
2018-01-24T21:45:31.314Z,80.50
2018-01-24T21:47:58.858Z,72.17
2018-01-24T21:50:26.398Z,59.00
2018-01-24T21:52:54.007Z,44.50
2018-01-24T21:55:21.614Z,62.43
2018-01-24T21:57:49.154Z,38.90
2018-01-24T22:00:16.817Z,40.90
2018-01-24T22:02:44.354Z,42.90
2018-01-24T22:05:11.896Z,40.70
2018-01-24T22:07:39.481Z,45.50
2018-01-24T22:10:07.015Z,37.57
2018-01-24T22:12:34.558Z,43.17
2018-01-24T22:15:02.146Z,39.80
2018-01-24T22:17:29.690Z,48.60
2018-01-24T22:19:57.229Z,36.57
2018-01-24T22:22:24.810Z,48.53
2018-01-24T22:24:52.353Z,41.40
2018-01-24T22:27:19.950Z,39.77
2018-01-24T22:29:47.536Z,41.60
2018-01-24T22:32:15.134Z,35.57
2018-01-24T22:34:42.674Z,24.00
2018-01-24T22:37:10.257Z,23.87
2018-01-24T22:39:37.833Z,19.80
2018-01-24T22:42:05.378Z,18.50
2018-01-24T22:44:33.002Z,21.23
2018-01-24T22:47:00.563Z,20.83
2018-01-24T22:49:28.095Z,18.27
2018-01-24T22:51:55.737Z,22.70
2018-01-24T22:54:23.346Z,24.10
2018-01-24T22:56:50.882Z,17.30
2018-01-24T22:59:18.522Z,26.07
2018-01-24T23:01:46.127Z,26.90
2018-01-24T23:04:13.711Z,22.20
2018-01-24T23:06:41.278Z,17.40
2018-01-24T23:09:08.810Z,16.47
2018-01-24T23:11:36.350Z,17.80
2018-01-24T23:14:03.938Z,21.13
2018-01-24T23:16:31.488Z,13.23
2018-01-24T23:18:59.025Z,17.40
2018-01-24T23:21:26.634Z,23.97
2018-01-24T23:23:54.286Z,20.40
2018-01-24T23:26:21.834Z,24.00
2018-01-24T23:28:49.473Z,25.27
2018-01-24T23:31:17.013Z,26.83
2018-01-24T23:33:44.550Z,29.53
2018-01-24T23:36:12.146Z,30.47
2018-01-24T23:38:39.738Z,19.33
2018-01-24T23:41:07.269Z,22.20
2018-01-24T23:43:34.845Z,18.30
2018-01-24T23:46:02.442Z,15.00
2018-01-24T23:48:30.011Z,12.87
2018-01-24T23:50:57.589Z,13.80
2018-01-24T23:53:25.126Z,14.83
2018-01-24T23:55:52.685Z,11.80
2018-01-24T23:58:20.270Z,10.03
